createdAt,value
2018-07-09T00:02:48.051Z,63.67
2018-07-09T00:07:42.352Z,62.93
2018-07-09T00:12:36.687Z,62.67
2018-07-09T00:17:31.415Z,65.17
2018-07-09T00:22:26.237Z,64.03
2018-07-09T00:27:20.945Z,65.45
2018-07-09T00:32:15.647Z,66.77
2018-07-09T00:37:10.256Z,64.91
2018-07-09T00:42:05.055Z,65.73
2018-07-09T00:46:59.852Z,65.64
2018-07-09T00:51:54.583Z,66.96
2018-07-09T00:56:49.422Z,65.27
2018-07-09T01:01:44.117Z,67.12
2018-07-09T01:06:38.836Z,68.53
2018-07-09T01:11:46.316Z,67.16
2018-07-09T01:16:40.998Z,67.32
2018-07-09T01:21:35.748Z,68.01
2018-07-09T01:26:30.915Z,68.99
2018-07-09T01:31:25.643Z,69.08
2018-07-09T01:36:20.824Z,69.40
2018-07-09T01:41:15.526Z,69.79
2018-07-09T01:46:10.228Z,69.84
2018-07-09T01:51:05.022Z,70.07
2018-07-09T01:55:59.699Z,69.84
2018-07-09T02:00:54.391Z,69.61
2018-07-09T02:05:49.086Z,70.29
2018-07-09T02:10:43.786Z,70.12
2018-07-09T02:15:38.515Z,69.63
2018-07-09T02:20:33.221Z,69.94
2018-07-09T02:25:27.985Z,71.21
2018-07-09T02:30:22.634Z,71.55
2018-07-09T02:35:17.285Z,70.81
2018-07-09T02:40:11.938Z,69.95
2018-07-09T02:45:06.938Z,69.92
2018-07-09T02:50:01.604Z,71.01
2018-07-09T02:54:56.325Z,68.48
2018-07-09T02:59:50.995Z,70.42
2018-07-09T03:04:45.665Z,71.06
2018-07-09T03:09:40.309Z,71.10
2018-07-09T03:14:34.969Z,69.99
2018-07-09T03:19:29.689Z,69.99
2018-07-09T03:24:24.386Z,70.09
2018-07-09T03:29:19.026Z,70.35
2018-07-09T03:34:13.663Z,70.27
2018-07-09T03:39:08.268Z,70.98
2018-07-09T03:44:02.872Z,71.32
2018-07-09T03:48:57.525Z,72.41
2018-07-09T03:53:52.295Z,70.67
2018-07-09T03:58:46.917Z,72.59
2018-07-09T04:03:41.595Z,71.37
2018-07-09T04:08:36.217Z,71.14
2018-07-09T04:13:30.869Z,69.73
2018-07-09T04:18:26.092Z,72.10
2018-07-09T04:23:20.756Z,72.01
2018-07-09T04:28:15.562Z,70.04
2018-07-09T04:33:10.140Z,69.96
2018-07-09T04:38:04.774Z,70.12
2018-07-09T04:42:59.456Z,68.57
2018-07-09T04:47:54.247Z,66.60
2018-07-09T04:52:48.860Z,66.63
2018-07-09T04:57:43.547Z,62.36
2018-07-09T05:02:38.211Z,61.97
2018-07-09T05:07:32.846Z,61.21
2018-07-09T05:12:27.514Z,60.94
2018-07-09T05:17:22.170Z,60.71
2018-07-09T05:22:16.870Z,58.95
2018-07-09T05:27:11.516Z,57.12
2018-07-09T05:32:06.233Z,56.49
2018-07-09T05:37:00.922Z,55.79
2018-07-09T05:41:55.900Z,55.63
2018-07-09T05:46:51.537Z,55.44
2018-07-09T05:51:46.270Z,56.49
2018-07-09T05:56:41.039Z,56.76
2018-07-09T06:01:35.813Z,57.55
2018-07-09T06:06:30.520Z,57.51
2018-07-09T06:11:25.411Z,58.68
2018-07-09T06:16:20.054Z,58.98
2018-07-09T06:21:14.733Z,59.05
2018-07-09T06:26:09.445Z,60.33
2018-07-09T06:31:04.007Z,62.30
2018-07-09T06:41:02.636Z,58.11
2018-07-09T06:45:57.671Z,57.70
2018-07-09T06:50:53.755Z,56.70
2018-07-09T06:55:48.624Z,55.33
2018-07-09T07:01:28.653Z,53.24
2018-07-09T07:06:23.425Z,50.88
2018-07-09T07:11:18.213Z,49.45
2018-07-09T07:16:13.188Z,48.25
2018-07-09T07:21:08.168Z,50.07
2018-07-09T07:26:02.989Z,41.88
2018-07-09T07:30:57.736Z,44.27
2018-07-09T07:35:53.263Z,41.85
2018-07-09T07:40:48.190Z,46.83
2018-07-09T07:46:17.379Z,46.92
2018-07-09T07:51:16.449Z,45.33
2018-07-09T07:56:11.817Z,44.10
2018-07-09T08:01:07.046Z,42.77
2018-07-09T08:06:02.087Z,45.12
2018-07-09T08:10:57.197Z,42.57
2018-07-09T08:15:52.407Z,42.76
2018-07-09T08:20:47.450Z,40.84
2018-07-09T08:25:42.743Z,39.03
2018-07-09T08:30:37.613Z,42.35
2018-07-09T08:35:32.735Z,39.31
2018-07-09T08:40:27.776Z,42.01
2018-07-09T08:45:23.021Z,40.57
2018-07-09T08:50:20.983Z,41.87
2018-07-09T08:55:15.885Z,40.88
2018-07-09T09:00:12.595Z,37.70
2018-07-09T09:05:07.503Z,39.18
2018-07-09T09:10:02.389Z,36.55
2018-07-09T09:14:57.435Z,41.77
2018-07-09T09:19:52.318Z,35.40
2018-07-09T09:24:47.464Z,37.61
2018-07-09T09:29:43.237Z,35.80
2018-07-09T09:34:37.778Z,38.03
2018-07-09T09:39:32.901Z,38.34
2018-07-09T09:44:31.362Z,37.79
2018-07-09T09:49:26.691Z,36.18
2018-07-09T09:54:21.704Z,37.55
2018-07-09T09:59:16.841Z,38.10
2018-07-09T10:04:12.094Z,38.07
2018-07-09T10:09:08.203Z,35.81
2018-07-09T10:14:03.457Z,35.92
2018-07-09T10:18:58.750Z,36.58
2018-07-09T10:23:53.531Z,34.71
2018-07-09T10:28:48.509Z,34.31
2018-07-09T10:33:43.391Z,34.98
2018-07-09T10:38:38.308Z,34.61
2018-07-09T10:43:35.105Z,34.34
2018-07-09T10:48:30.080Z,32.01
2018-07-09T10:53:24.953Z,33.19
2018-07-09T10:58:20.036Z,34.93
2018-07-09T11:03:17.794Z,32.96
2018-07-09T11:08:12.599Z,34.04
2018-07-09T11:13:07.358Z,35.85
2018-07-09T11:18:04.811Z,33.02
2018-07-09T11:22:59.715Z,34.30
2018-07-09T11:28:00.871Z,33.25
2018-07-09T11:32:55.843Z,33.77
2018-07-09T11:37:50.681Z,32.34
2018-07-09T11:42:45.637Z,32.73
2018-07-09T11:47:41.360Z,32.78
2018-07-09T11:52:36.314Z,29.98
2018-07-09T11:57:34.343Z,32.19
2018-07-09T12:02:29.159Z,33.69
2018-07-09T12:07:24.072Z,30.25
2018-07-09T12:12:19.076Z,32.18
2018-07-09T12:17:13.915Z,33.44
2018-07-09T12:22:08.833Z,31.47
2018-07-09T12:27:03.703Z,30.61
2018-07-09T12:31:58.579Z,31.17
2018-07-09T12:36:53.389Z,29.50
2018-07-09T12:41:48.267Z,31.07
2018-07-09T12:46:43.701Z,30.58
2018-07-09T12:51:40.343Z,33.23
2018-07-09T12:56:35.822Z,31.18
2018-07-09T13:01:30.913Z,31.58
2018-07-09T13:06:25.948Z,34.51
2018-07-09T13:11:20.934Z,30.65
2018-07-09T13:16:15.929Z,33.78
2018-07-09T13:21:10.969Z,32.31
2018-07-09T13:26:06.134Z,33.60
2018-07-09T13:31:02.339Z,32.89
2018-07-09T13:35:57.389Z,33.69
2018-07-09T13:40:52.285Z,31.27
2018-07-09T13:51:10.557Z,30.90
2018-07-09T13:56:05.819Z,32.03
2018-07-09T14:01:00.840Z,33.08
2018-07-09T14:05:55.948Z,33.56
2018-07-09T14:11:13.203Z,32.90
2018-07-09T14:16:09.144Z,32.98
2018-07-09T14:21:06.536Z,33.92
2018-07-09T14:26:01.508Z,33.81
2018-07-09T14:30:56.383Z,34.46
2018-07-09T14:35:51.260Z,32.55
2018-07-09T14:40:46.493Z,34.73
2018-07-09T14:51:00.057Z,28.66
2018-07-09T14:55:55.488Z,31.01
2018-07-09T15:00:51.033Z,32.85
2018-07-09T15:05:47.245Z,29.68
2018-07-09T15:10:43.611Z,33.76
2018-07-09T15:15:41.921Z,31.15
2018-07-09T15:20:37.042Z,32.23
2018-07-09T15:25:32.609Z,33.20
2018-07-09T15:30:29.710Z,30.74
2018-07-09T15:35:24.973Z,33.13
2018-07-09T15:40:20.025Z,30.16
2018-07-09T15:54:38.855Z,30.73
2018-07-09T15:59:34.147Z,32.24
2018-07-09T16:04:31.187Z,31.52
2018-07-09T16:09:31.075Z,33.44
2018-07-09T16:14:56.678Z,34.80
2018-07-09T16:20:59.427Z,31.87
2018-07-09T16:39:08.018Z,31.83
2018-07-09T16:44:25.368Z,32.51
2018-07-09T16:55:08.461Z,33.99
2018-07-09T17:05:58.632Z,35.99
2018-07-09T17:11:24.710Z,38.30
2018-07-09T17:34:47.381Z,39.29
2018-07-09T17:39:42.589Z,42.85
2018-07-09T17:44:37.537Z,42.17
2018-07-09T17:49:32.425Z,42.49
2018-07-09T17:54:27.654Z,43.56
2018-07-09T17:59:22.469Z,44.01
2018-07-09T18:04:22.456Z,39.35
2018-07-09T18:09:17.859Z,38.79
2018-07-09T18:14:12.863Z,36.43
2018-07-09T18:19:17.500Z,40.17
2018-07-09T18:24:19.942Z,37.27
2018-07-09T18:29:15.199Z,35.87
2018-07-09T18:34:11.855Z,37.45
2018-07-09T18:39:12.278Z,40.51
2018-07-09T18:44:09.478Z,40.76
2018-07-09T18:54:46.727Z,42.74
2018-07-09T18:59:41.401Z,43.61
2018-07-09T19:04:36.136Z,42.89
2018-07-09T19:09:31.203Z,43.79
2018-07-09T19:14:34.426Z,43.00
2018-07-09T19:19:45.763Z,45.06
2018-07-09T19:24:38.576Z,45.40
2018-07-09T19:29:31.420Z,45.58
2018-07-09T19:34:24.227Z,45.62
2018-07-09T19:39:17.044Z,46.37
2018-07-09T19:44:09.867Z,46.50
2018-07-09T19:49:02.713Z,44.56
2018-07-09T19:53:55.527Z,43.57
2018-07-09T19:58:48.359Z,43.54
2018-07-09T20:03:41.159Z,45.34
2018-07-09T20:08:39.196Z,45.63
2018-07-09T20:14:01.884Z,48.89
2018-07-09T20:18:54.704Z,50.34
2018-07-09T20:23:48.542Z,51.21
2018-07-09T20:28:41.356Z,51.27
2018-07-09T20:33:34.161Z,53.82
2018-07-09T20:38:26.979Z,54.42
2018-07-09T20:43:19.791Z,53.97
2018-07-09T20:48:12.611Z,54.42
2018-07-09T20:53:05.417Z,53.29
2018-07-09T20:57:58.223Z,54.04
2018-07-09T21:02:51.029Z,53.69
2018-07-09T21:07:43.864Z,55.05
2018-07-09T21:12:41.995Z,54.81
2018-07-09T21:17:34.847Z,55.71
2018-07-09T21:22:27.682Z,55.08
2018-07-09T21:27:20.752Z,55.91
2018-07-09T21:32:13.572Z,56.84
2018-07-09T21:37:06.405Z,55.08
2018-07-09T21:41:59.220Z,57.75
2018-07-09T21:46:52.015Z,54.82
2018-07-09T21:51:44.831Z,53.88
2018-07-09T21:56:37.645Z,54.04
2018-07-09T22:01:30.452Z,55.20
2018-07-09T22:06:23.299Z,52.87
2018-07-09T22:11:16.112Z,51.68
2018-07-09T22:16:08.923Z,52.98
2018-07-09T22:21:01.735Z,50.35
2018-07-09T22:25:54.533Z,51.07
2018-07-09T22:30:49.212Z,50.46
2018-07-09T22:35:43.850Z,51.78
2018-07-09T22:40:38.483Z,51.95
2018-07-09T22:45:33.141Z,51.22
2018-07-09T22:50:27.847Z,53.10
2018-07-09T22:56:07.816Z,51.89
2018-07-09T23:01:03.042Z,52.49
2018-07-09T23:05:57.797Z,52.64
2018-07-09T23:13:36.583Z,53.41
2018-07-09T23:18:59.725Z,52.61
2018-07-09T23:23:52.536Z,51.59
2018-07-09T23:28:45.354Z,53.04
2018-07-09T23:33:38.163Z,54.25
2018-07-09T23:38:30.970Z,55.56
2018-07-09T23:43:24.067Z,56.23
2018-07-09T23:48:16.880Z,55.23
2018-07-09T23:53:09.722Z,53.03
2018-07-09T23:58:20.887Z,54.46
